createdAt,value
2019-01-19T00:01:56.666Z,42.90
2019-01-19T00:12:34.581Z,43.00
2019-01-19T00:23:39.285Z,43.10
2019-01-19T00:34:42.246Z,43.10
2019-01-19T00:45:30.764Z,43.30
2019-01-19T00:56:32.780Z,43.20
2019-01-19T01:07:29.070Z,43.20
2019-01-19T01:18:00.780Z,43.20
2019-01-19T01:29:01.614Z,43.20
2019-01-19T01:39:52.941Z,43.30
2019-01-19T01:50:14.119Z,43.30
2019-01-19T02:00:37.650Z,43.30
2019-01-19T02:11:42.106Z,43.30
2019-01-19T02:22:24.796Z,43.30
2019-01-19T02:33:27.057Z,43.30
2019-01-19T02:44:11.868Z,43.40
2019-01-19T02:54:59.718Z,43.50
2019-01-19T03:05:44.120Z,44.00
2019-01-19T03:16:39.722Z,43.40
2019-01-19T03:27:45.506Z,43.50
2019-01-19T03:38:40.967Z,43.50
2019-01-19T03:49:51.475Z,43.70
2019-01-19T04:01:00.499Z,43.60
2019-01-19T04:11:58.455Z,44.20
2019-01-19T04:22:29.301Z,43.80
2019-01-19T04:32:34.724Z,43.90
2019-01-19T04:42:41.916Z,43.90
2019-01-19T04:52:47.337Z,44.50
2019-01-19T05:02:52.845Z,43.90
2019-01-19T05:12:58.378Z,44.00
2019-01-19T05:23:03.982Z,44.00
2019-01-19T05:33:11.533Z,44.30
2019-01-19T05:43:17.899Z,44.50
2019-01-19T05:53:25.122Z,44.50
2019-01-19T06:03:30.556Z,44.40
2019-01-19T06:13:36.172Z,44.40
2019-01-19T06:23:41.772Z,44.30
2019-01-19T06:33:47.342Z,44.20
2019-01-19T06:43:53.135Z,44.20
2019-01-19T06:54:01.711Z,44.10
2019-01-19T07:04:09.126Z,44.40
2019-01-19T07:14:14.846Z,44.30
2019-01-19T07:24:21.577Z,44.30
2019-01-19T07:34:27.154Z,44.30
2019-01-19T07:44:36.400Z,44.50
2019-01-19T07:54:42.049Z,44.50
2019-01-19T08:04:47.446Z,45.00
2019-01-19T08:14:52.969Z,45.30
2019-01-19T08:24:58.572Z,45.50
2019-01-19T08:35:04.449Z,46.30
2019-01-19T08:45:11.103Z,46.10
2019-01-19T08:55:16.578Z,46.10
2019-01-19T09:05:22.389Z,45.70
2019-01-19T09:15:28.074Z,45.60
2019-01-19T09:25:33.598Z,45.60
2019-01-19T09:35:39.031Z,44.70
2019-01-19T09:45:44.479Z,43.80
2019-01-19T09:55:49.982Z,44.00
2019-01-19T10:05:55.497Z,44.40
2019-01-19T10:16:00.850Z,44.60
2019-01-19T10:26:06.780Z,47.40
2019-01-19T10:36:13.614Z,37.40
2019-01-19T10:46:19.517Z,39.60
2019-01-19T10:56:25.191Z,41.90
2019-01-19T11:06:31.061Z,42.00
2019-01-19T11:16:37.309Z,42.60
2019-01-19T11:26:43.224Z,42.90
2019-01-19T11:36:49.327Z,40.30
2019-01-19T11:46:54.990Z,40.30
2019-01-19T11:57:00.379Z,40.80
2019-01-19T12:07:05.985Z,40.70
2019-01-19T12:17:11.920Z,41.10
2019-01-19T12:27:17.412Z,41.30
2019-01-19T12:37:23.268Z,41.30
2019-01-19T12:47:29.062Z,41.40
2019-01-19T12:57:34.373Z,41.70
2019-01-19T13:07:41.404Z,41.70
2019-01-19T13:18:50.816Z,41.80
2019-01-19T13:29:48.100Z,41.90
2019-01-19T13:41:13.758Z,42.40
2019-01-19T13:52:24.769Z,43.40
2019-01-19T14:03:45.554Z,43.90
2019-01-19T14:14:38.305Z,43.90
2019-01-19T14:25:54.300Z,43.90
2019-01-19T14:36:56.125Z,44.00
2019-01-19T14:47:39.504Z,43.70
2019-01-19T14:58:03.578Z,44.00
2019-01-19T15:08:51.576Z,40.80
2019-01-19T15:20:01.591Z,37.30
2019-01-19T15:30:25.508Z,38.50
2019-01-19T15:41:36.136Z,39.80
2019-01-19T15:52:32.387Z,40.40
2019-01-19T16:03:44.074Z,41.00
2019-01-19T16:14:34.613Z,41.60
2019-01-19T16:25:28.584Z,41.90
2019-01-19T16:36:44.743Z,41.80
2019-01-19T16:47:59.588Z,42.30
2019-01-19T16:58:43.671Z,41.80
2019-01-19T17:09:34.945Z,42.10
2019-01-19T17:20:47.412Z,42.30
2019-01-19T17:31:39.041Z,42.70
2019-01-19T17:43:02.338Z,42.90
2019-01-19T17:54:00.318Z,43.10
2019-01-19T18:04:55.685Z,43.20
2019-01-19T18:16:14.186Z,43.10
2019-01-19T18:27:14.110Z,43.30
2019-01-19T18:38:24.472Z,43.30
2019-01-19T18:49:24.059Z,43.50
2019-01-19T19:00:22.712Z,43.50
2019-01-19T19:11:37.749Z,43.70
2019-01-19T19:22:19.733Z,43.70
2019-01-19T19:33:43.534Z,43.80
2019-01-19T19:44:46.178Z,43.90
2019-01-19T19:54:52.909Z,44.00
2019-01-19T20:04:58.431Z,44.00
2019-01-19T20:15:04.155Z,44.10
2019-01-19T20:25:09.675Z,44.20
2019-01-19T20:35:15.123Z,44.20
2019-01-19T20:45:20.558Z,44.20
2019-01-19T20:55:26.138Z,44.20
2019-01-19T21:05:31.880Z,44.20
2019-01-19T21:15:37.291Z,44.20
2019-01-19T21:25:42.815Z,44.20
2019-01-19T21:35:48.189Z,44.30
2019-01-19T21:45:53.696Z,44.40
2019-01-19T21:55:59.258Z,44.30
2019-01-19T22:06:04.702Z,44.30
2019-01-19T22:16:10.069Z,44.30
2019-01-19T22:26:17.489Z,44.30
2019-01-19T22:36:22.973Z,44.30
2019-01-19T22:46:29.446Z,44.20
2019-01-19T22:56:34.905Z,44.30
2019-01-19T23:06:40.340Z,44.20
2019-01-19T23:16:45.769Z,44.20
2019-01-19T23:26:52.096Z,44.20
2019-01-19T23:36:58.672Z,44.20
2019-01-19T23:47:04.218Z,44.30
2019-01-19T23:57:09.992Z,44.40
